Time;durP1;ratioP1;P1;durP2;ratioP2;P2;SDS_P1;SDS_P2;PMS_P1;PMS_P2;Temp;Humidity;BMP_temperature;BMP_pressure;BME280_temperature;BME280_humidity;BME280_pressure;Samples;Min_cycle;Max_cycle;Signal;HPM_P1;HPM_P2
2023/03/05 00:02:12;;;;;;;14.50;3.38;;;3.20;99.90;;;;;;5048592;28;20162;-45
2023/03/05 00:04:37;;;;;;;17.15;4.50;;;3.20;99.90;;;;;;5047857;28;20071;-44
2023/03/05 00:07:04;;;;;;;12.68;3.35;;;3.20;99.90;;;;;;5047068;28;20029;-45
2023/03/05 00:09:30;;;;;;;11.10;4.57;;;3.20;99.90;;;;;;5048685;28;20025;-46
2023/03/05 00:11:55;;;;;;;20.48;4.97;;;3.20;99.90;;;;;;5068303;28;20031;-45
2023/03/05 00:14:21;;;;;;;16.55;4.28;;;3.10;99.90;;;;;;5068078;28;20051;-45
2023/03/05 00:16:47;;;;;;;19.35;5.38;;;3.10;99.90;;;;;;5068311;28;20025;-46
2023/03/05 00:19:12;;;;;;;12.73;4.72;;;3.00;99.90;;;;;;5068004;28;20021;-44
2023/03/05 00:21:40;;;;;;;21.80;5.03;;;2.90;99.90;;;;;;5046613;28;20112;-46
2023/03/05 00:24:10;;;;;;;19.90;5.78;;;2.90;99.90;;;;;;5047803;28;20474;-45
2023/03/05 00:26:38;;;;;;;15.80;5.45;;;2.90;99.90;;;;;;5048296;28;20028;-44
2023/03/05 00:29:04;;;;;;;16.38;5.47;;;2.90;99.90;;;;;;5047091;28;20053;-45
2023/03/05 00:31:32;;;;;;;20.17;5.50;;;2.80;99.90;;;;;;5048196;28;20534;-45
2023/03/05 00:34:01;;;;;;;28.30;6.10;;;2.80;99.90;;;;;;5048081;28;20056;-45
2023/03/05 00:36:28;;;;;;;22.00;5.95;;;2.80;99.90;;;;;;5047457;28;20044;-45
2023/03/05 00:38:54;;;;;;;14.57;5.57;;;2.80;99.90;;;;;;5048004;28;20112;-45
2023/03/05 00:41:19;;;;;;;19.20;6.10;;;2.90;99.90;;;;;;5055493;28;20025;-45
2023/03/05 00:43:46;;;;;;;15.80;5.75;;;2.90;99.90;;;;;;5051439;28;20436;-45
2023/03/05 00:46:12;;;;;;;18.58;6.63;;;2.80;99.90;;;;;;5050313;28;20086;-45
2023/03/05 00:48:37;;;;;;;13.40;5.63;;;2.90;99.90;;;;;;5051657;28;20116;-48
2023/03/05 00:51:03;;;;;;;18.02;6.28;;;2.90;99.90;;;;;;5056112;28;20056;-45
2023/03/05 00:53:29;;;;;;;18.95;6.07;;;2.80;99.90;;;;;;5051519;28;20410;-44
2023/03/05 00:55:54;;;;;;;18.17;6.00;;;2.80;99.90;;;;;;5051460;28;20055;-45
2023/03/05 00:58:20;;;;;;;13.77;6.25;;;2.70;99.90;;;;;;5051676;28;20120;-45
2023/03/05 01:00:49;;;;;;;13.07;5.45;;;2.70;99.90;;;;;;5049741;28;20323;-44
2023/03/05 01:03:15;;;;;;;16.40;5.72;;;2.70;99.90;;;;;;5051066;28;20033;-45
2023/03/05 01:05:41;;;;;;;18.85;5.90;;;2.70;99.90;;;;;;5049962;28;20029;-44
2023/03/05 01:08:07;;;;;;;16.90;6.85;;;2.70;99.90;;;;;;5051089;28;20071;-47
2023/03/05 01:10:33;;;;;;;17.45;5.70;;;2.70;99.90;;;;;;5050291;28;20560;-46
2023/03/05 01:12:59;;;;;;;22.02;6.53;;;2.70;99.90;;;;;;5051332;28;20033;-47
2023/03/05 01:15:24;;;;;;;14.82;5.50;;;2.70;99.90;;;;;;5051092;28;20392;-45
2023/03/05 01:17:50;;;;;;;15.68;6.07;;;2.80;99.90;;;;;;5051249;28;20036;-44
2023/03/05 01:20:17;;;;;;;14.85;4.82;;;2.70;99.90;;;;;;5050717;28;20021;-44
2023/03/05 01:22:43;;;;;;;19.75;6.38;;;2.70;99.90;;;;;;5050910;28;20025;-45
2023/03/05 01:25:08;;;;;;;12.73;5.30;;;2.70;99.90;;;;;;5050634;28;20029;-45
2023/03/05 01:27:34;;;;;;;20.90;6.28;;;2.70;99.90;;;;;;5050706;28;20024;-44
2023/03/05 01:30:00;;;;;;;17.38;5.25;;;2.70;99.90;;;;;;5049631;28;20116;-45
2023/03/05 01:32:25;;;;;;;20.52;5.38;;;2.70;99.90;;;;;;5050419;28;20053;-44
2023/03/05 01:34:51;;;;;;;13.27;4.90;;;2.70;99.90;;;;;;5050193;28;20032;-44
2023/03/05 01:37:16;;;;;;;15.93;4.93;;;2.70;99.90;;;;;;5050477;28;20021;-44
2023/03/05 01:39:42;;;;;;;15.55;5.45;;;2.70;99.90;;;;;;5049199;28;20029;-47
2023/03/05 01:42:07;;;;;;;14.80;5.50;;;2.70;99.90;;;;;;5050219;28;20040;-44
2023/03/05 01:44:34;;;;;;;20.30;5.38;;;2.70;99.90;;;;;;5050190;28;20028;-44
2023/03/05 01:47:00;;;;;;;15.73;5.03;;;2.70;99.90;;;;;;5048891;28;20037;-46
2023/03/05 01:49:28;;;;;;;20.27;6.50;;;2.60;99.90;;;;;;5050380;28;20035;-45
2023/03/05 01:52:10;;;;;;;20.38;5.10;;;2.60;99.90;;;;;;5049296;28;20036;-44
2023/03/05 01:54:40;;;;;;;13.25;4.97;;;2.60;99.90;;;;;;5049746;28;20170;-46
2023/03/05 01:57:10;;;;;;;15.25;6.38;;;2.60;99.90;;;;;;5050238;28;20439;-47
2023/03/05 01:59:37;;;;;;;16.20;5.25;;;2.60;99.90;;;;;;5050181;28;20021;-46
2023/03/05 02:02:04;;;;;;;18.58;5.18;;;2.70;99.90;;;;;;5049026;28;20026;-47
2023/03/05 02:04:36;;;;;;;14.85;5.68;;;2.70;99.90;;;;;;5049268;28;20017;-45
2023/03/05 02:07:02;;;;;;;12.77;5.65;;;2.70;99.90;;;;;;5050095;28;20033;-46
2023/03/05 02:09:28;;;;;;;19.98;5.30;;;2.70;99.90;;;;;;5049637;28;20025;-45
2023/03/05 02:11:54;;;;;;;13.73;5.10;;;2.70;99.90;;;;;;5049944;28;20031;-44
2023/03/05 02:14:23;;;;;;;18.30;5.05;;;2.70;99.90;;;;;;5049513;28;20421;-45
2023/03/05 02:16:48;;;;;;;16.48;5.82;;;2.70;99.90;;;;;;5049789;28;20019;-45
2023/03/05 02:19:14;;;;;;;18.30;6.18;;;2.70;99.90;;;;;;5044364;28;20453;-45
2023/03/05 02:21:45;;;;;;;10.52;4.85;;;2.70;99.90;;;;;;5049509;28;20025;-44
2023/03/05 02:24:17;;;;;;;12.65;5.25;;;2.70;99.90;;;;;;5029026;28;20013;-46
2023/03/05 02:26:44;;;;;;;19.40;5.20;;;2.70;99.90;;;;;;5029803;28;20505;-45
2023/03/05 02:29:13;;;;;;;18.42;5.93;;;2.60;99.90;;;;;;5028409;28;20071;-45
2023/03/05 02:31:39;;;;;;;14.45;5.55;;;2.70;99.90;;;;;;5028231;28;20240;-46
2023/03/05 02:34:05;;;;;;;16.98;5.63;;;2.70;99.90;;;;;;5029242;28;20030;-45
2023/03/05 02:36:31;;;;;;;14.48;5.72;;;2.70;99.90;;;;;;5029788;28;20033;-45
2023/03/05 02:38:57;;;;;;;20.33;5.82;;;2.70;99.90;;;;;;5030170;28;20434;-45
2023/03/05 02:41:23;;;;;;;13.50;5.25;;;2.70;99.90;;;;;;5028286;28;20025;-45
2023/03/05 02:43:49;;;;;;;14.05;4.65;;;2.70;99.90;;;;;;5044210;28;20033;-45
2023/03/05 02:46:14;;;;;;;15.10;4.47;;;2.70;99.90;;;;;;5049624;28;20082;-45
2023/03/05 02:48:40;;;;;;;11.23;4.35;;;2.70;99.90;;;;;;5049329;28;20049;-45
2023/03/05 02:51:07;;;;;;;17.95;4.55;;;2.70;99.90;;;;;;5049413;28;20025;-44
2023/03/05 02:53:33;;;;;;;12.90;3.88;;;2.70;99.90;;;;;;5049492;28;20020;-45
2023/03/05 02:55:59;;;;;;;15.15;5.65;;;2.60;99.90;;;;;;5048969;28;20572;-44
2023/03/05 02:58:24;;;;;;;13.50;3.30;;;2.70;99.90;;;;;;5049348;28;20029;-44
2023/03/05 03:00:50;;;;;;;15.80;4.43;;;2.70;99.90;;;;;;5047870;28;20021;-44
2023/03/05 03:03:15;;;;;;;12.15;3.55;;;2.70;99.90;;;;;;5047132;28;20060;-45
2023/03/05 03:05:41;;;;;;;13.15;3.42;;;2.70;99.90;;;;;;5049099;28;20372;-45
2023/03/05 03:08:07;;;;;;;18.58;4.50;;;2.70;99.90;;;;;;5047878;28;20486;-44
2023/03/05 03:10:33;;;;;;;12.30;3.85;;;2.60;99.90;;;;;;5049181;28;20120;-44
2023/03/05 03:12:58;;;;;;;14.00;3.78;;;2.70;99.90;;;;;;5048899;28;20559;-44
2023/03/05 03:15:24;;;;;;;12.32;4.15;;;2.70;99.90;;;;;;5048876;28;20268;-44
2023/03/05 03:17:50;;;;;;;8.93;3.33;;;2.70;99.90;;;;;;5049123;28;20525;-45
2023/03/05 03:20:17;;;;;;;18.77;3.08;;;2.70;99.90;;;;;;5049373;28;20035;-45
2023/03/05 03:22:44;;;;;;;16.08;4.03;;;2.70;99.90;;;;;;5049041;28;20023;-44
2023/03/05 03:25:14;;;;;;;15.93;4.03;;;2.70;99.90;;;;;;5048491;28;20074;-44
2023/03/05 03:27:39;;;;;;;18.15;4.05;;;2.70;99.90;;;;;;5048876;28;20048;-47
2023/03/05 03:30:06;;;;;;;9.55;3.60;;;2.70;99.90;;;;;;5047730;28;20494;-45
2023/03/05 03:32:32;;;;;;;13.00;3.80;;;2.80;99.90;;;;;;5046699;28;20067;-46
2023/03/05 03:34:58;;;;;;;13.38;4.13;;;2.70;99.90;;;;;;5048604;28;20029;-47
2023/03/05 03:37:24;;;;;;;17.00;4.30;;;2.70;99.90;;;;;;5048553;28;20092;-45
2023/03/05 03:39:50;;;;;;;11.18;3.80;;;2.70;99.90;;;;;;5048966;28;20025;-45
2023/03/05 03:42:20;;;;;;;11.88;4.32;;;2.70;99.90;;;;;;5048405;28;20028;-44
2023/03/05 03:44:46;;;;;;;11.13;4.35;;;2.70;99.90;;;;;;5047979;28;20055;-45
2023/03/05 03:47:12;;;;;;;12.48;4.30;;;2.70;99.90;;;;;;5048645;28;20525;-45
2023/03/05 03:49:37;;;;;;;14.15;4.57;;;2.60;99.90;;;;;;5049117;28;20060;-47
2023/03/05 03:52:04;;;;;;;9.35;4.25;;;2.60;99.90;;;;;;5048651;28;20056;-44
2023/03/05 03:54:29;;;;;;;15.98;5.30;;;2.60;99.90;;;;;;5048272;28;20398;-45
2023/03/05 03:56:55;;;;;;;12.23;4.00;;;2.70;99.90;;;;;;5048539;28;20029;-45
2023/03/05 03:59:20;;;;;;;15.77;4.07;;;2.70;99.90;;;;;;5048496;28;20060;-45
2023/03/05 04:01:46;;;;;;;13.18;4.80;;;2.60;99.90;;;;;;5047059;28;20064;-45
2023/03/05 04:04:12;;;;;;;17.33;4.50;;;2.70;99.90;;;;;;5048238;28;20105;-45
2023/03/05 04:06:38;;;;;;;12.27;4.85;;;2.60;99.90;;;;;;5049128;28;20017;-45
2023/03/05 04:09:05;;;;;;;20.02;4.75;;;2.60;99.90;;;;;;5047671;28;20036;-48
2023/03/05 04:11:30;;;;;;;12.70;4.15;;;2.60;99.90;;;;;;5048500;28;20115;-45
2023/03/05 04:13:56;;;;;;;16.70;4.40;;;2.60;99.90;;;;;;5048242;28;20112;-44
2023/03/05 04:16:22;;;;;;;10.52;4.00;;;2.50;99.90;;;;;;5051079;28;20029;-45
2023/03/05 04:18:47;;;;;;;24.02;6.07;;;2.60;99.90;;;;;;5052465;28;20240;-46
2023/03/05 04:21:13;;;;;;;17.92;5.03;;;2.60;99.90;;;;;;5052183;28;20065;-45
2023/03/05 04:23:39;;;;;;;18.08;4.45;;;2.70;99.90;;;;;;5051614;28;20060;-46
2023/03/05 04:26:05;;;;;;;19.42;4.72;;;2.70;99.90;;;;;;5050832;28;20489;-46
2023/03/05 04:28:30;;;;;;;12.48;4.13;;;2.60;99.90;;;;;;5052180;28;20025;-45
2023/03/05 04:30:56;;;;;;;16.08;4.80;;;2.60;99.90;;;;;;5052445;28;20036;-45
2023/03/05 04:33:22;;;;;;;11.25;4.72;;;2.60;99.90;;;;;;5051707;28;20035;-45
2023/03/05 04:35:47;;;;;;;14.82;4.40;;;2.50;99.90;;;;;;5050259;28;20045;-47
2023/03/05 04:38:13;;;;;;;14.50;4.80;;;2.40;99.90;;;;;;5051672;28;20340;-45
2023/03/05 04:40:38;;;;;;;14.82;4.38;;;2.40;99.90;;;;;;5051740;28;20029;-45
2023/03/05 04:43:05;;;;;;;21.77;4.68;;;2.40;99.90;;;;;;5051642;28;20035;-46
2023/03/05 04:45:31;;;;;;;16.42;4.88;;;2.30;99.90;;;;;;5051107;28;20058;-46
2023/03/05 04:47:57;;;;;;;12.75;4.85;;;2.30;99.90;;;;;;5051687;28;20037;-45
2023/03/05 04:50:23;;;;;;;14.45;5.72;;;2.30;99.90;;;;;;5051703;28;20478;-45
2023/03/05 04:52:48;;;;;;;9.07;4.55;;;2.30;99.90;;;;;;5051547;28;20441;-45
2023/03/05 04:55:15;;;;;;;15.00;5.15;;;2.30;99.90;;;;;;5051171;28;20107;-46
2023/03/05 04:57:40;;;;;;;15.13;5.13;;;2.30;99.90;;;;;;5051584;28;20060;-45
2023/03/05 05:00:13;;;;;;;15.68;5.82;;;2.30;99.90;;;;;;5051496;28;20450;-45
2023/03/05 05:02:49;;;;;;;23.48;5.97;;;2.30;99.90;;;;;;5051174;28;20032;-45
2023/03/05 05:05:20;;;;;;;15.52;5.13;;;2.30;99.90;;;;;;5050710;28;20480;-48
2023/03/05 05:07:46;;;;;;;16.00;5.70;;;2.30;99.90;;;;;;5051508;28;20080;-45
2023/03/05 05:10:13;;;;;;;12.13;5.45;;;2.40;99.90;;;;;;5052117;28;20025;-45
2023/03/05 05:12:39;;;;;;;19.67;5.50;;;2.40;99.90;;;;;;5051503;28;20032;-45
2023/03/05 05:15:06;;;;;;;18.13;6.70;;;2.40;99.90;;;;;;5051085;28;20445;-46
2023/03/05 05:17:32;;;;;;;12.85;6.07;;;2.40;99.90;;;;;;5051214;28;20501;-48
2023/03/05 05:19:59;;;;;;;13.40;4.88;;;2.40;99.90;;;;;;5051305;28;20025;-45
2023/03/05 05:22:27;;;;;;;14.90;5.03;;;2.40;99.90;;;;;;5051276;28;20383;-46
2023/03/05 05:24:52;;;;;;;15.55;5.80;;;2.40;99.90;;;;;;5050755;28;20489;-45
2023/03/05 05:27:18;;;;;;;14.63;5.43;;;2.40;99.90;;;;;;5048745;28;20040;-45
2023/03/05 05:29:45;;;;;;;18.90;5.75;;;2.40;99.90;;;;;;5051117;28;20074;-47
2023/03/05 05:32:11;;;;;;;17.23;5.40;;;2.40;99.90;;;;;;5051111;28;20025;-45
2023/03/05 05:34:36;;;;;;;10.82;5.28;;;2.40;99.90;;;;;;5050705;28;20036;-45
2023/03/05 05:37:02;;;;;;;12.13;5.50;;;2.40;99.90;;;;;;5049661;28;20072;-45
2023/03/05 05:39:27;;;;;;;16.02;5.88;;;2.40;99.90;;;;;;5050906;28;20055;-44
2023/03/05 05:41:53;;;;;;;18.23;5.18;;;2.40;99.90;;;;;;5050602;28;20029;-46
2023/03/05 05:44:18;;;;;;;13.50;5.10;;;2.40;99.90;;;;;;5050263;28;20017;-45
2023/03/05 05:46:44;;;;;;;13.98;5.85;;;2.50;99.90;;;;;;5050625;28;20469;-45
2023/03/05 05:49:10;;;;;;;12.85;5.53;;;2.50;99.90;;;;;;5051005;28;20029;-44
2023/03/05 05:51:35;;;;;;;13.60;6.50;;;2.50;99.90;;;;;;5051007;28;20104;-46
2023/03/05 05:54:01;;;;;;;12.70;5.40;;;2.40;99.90;;;;;;5050577;28;20383;-44
2023/03/05 05:56:26;;;;;;;12.15;6.05;;;2.40;99.90;;;;;;5050494;28;20029;-45
2023/03/05 05:58:52;;;;;;;13.98;5.03;;;2.40;99.90;;;;;;5050620;28;20053;-45
2023/03/05 06:01:28;;;;;;;13.90;5.20;;;2.40;99.90;;;;;;5050567;28;20021;-45
2023/03/05 06:03:54;;;;;;;14.30;5.57;;;2.50;99.90;;;;;;5050177;28;20021;-44
2023/03/05 06:06:22;;;;;;;15.63;5.75;;;2.50;99.90;;;;;;5050616;28;20028;-44
2023/03/05 06:08:48;;;;;;;13.52;5.78;;;2.50;99.90;;;;;;5048971;28;20120;-45
2023/03/05 06:11:14;;;;;;;14.63;5.72;;;2.50;99.90;;;;;;5050355;28;20029;-46
2023/03/05 06:13:39;;;;;;;13.20;5.10;;;2.50;99.90;;;;;;5049958;28;20036;-45
2023/03/05 06:16:07;;;;;;;11.43;5.80;;;2.50;99.90;;;;;;5050672;28;20047;-45
2023/03/05 06:18:34;;;;;;;15.43;5.40;;;2.50;99.90;;;;;;5049771;28;20040;-45
2023/03/05 06:21:08;;;;;;;15.13;6.13;;;2.50;99.90;;;;;;5050048;28;20033;-45
2023/03/05 06:23:34;;;;;;;17.40;6.43;;;2.50;99.90;;;;;;5050045;28;20048;-45
2023/03/05 06:26:05;;;;;;;18.63;5.90;;;2.50;99.90;;;;;;5050106;28;20083;-45
2023/03/05 06:28:30;;;;;;;16.25;7.10;;;2.50;99.90;;;;;;5049444;28;20047;-44
2023/03/05 06:31:04;;;;;;;15.32;5.95;;;2.60;99.90;;;;;;5049935;28;20104;-45
2023/03/05 06:33:31;;;;;;;14.02;6.35;;;2.60;99.90;;;;;;5049800;28;20025;-47
2023/03/05 06:35:56;;;;;;;12.32;6.03;;;2.60;99.90;;;;;;5049715;28;20029;-46
2023/03/05 06:38:22;;;;;;;13.30;6.28;;;2.60;99.90;;;;;;5049397;28;20021;-44
2023/03/05 06:40:47;;;;;;;15.80;7.40;;;2.60;99.90;;;;;;5049982;28;20017;-44
2023/03/05 06:43:13;;;;;;;16.10;6.38;;;2.60;99.90;;;;;;5049541;28;20035;-44
2023/03/05 06:45:38;;;;;;;12.55;6.00;;;2.60;99.90;;;;;;5044604;28;20248;-44
2023/03/05 06:48:04;;;;;;;12.55;6.60;;;2.70;99.90;;;;;;5047388;28;20037;-44
2023/03/05 06:50:29;;;;;;;15.98;6.00;;;2.70;99.90;;;;;;5048482;28;20040;-48
2023/03/05 06:52:55;;;;;;;13.40;6.35;;;2.70;99.90;;;;;;5048576;28;20029;-44
2023/03/05 06:55:20;;;;;;;13.10;7.38;;;2.70;99.90;;;;;;5049076;28;20021;-44
2023/03/05 06:57:46;;;;;;;11.43;6.88;;;2.70;99.90;;;;;;5047554;28;20024;-44
2023/03/05 07:00:12;;;;;;;14.07;6.13;;;2.70;99.90;;;;;;5048935;28;20020;-47
2023/03/05 07:02:38;;;;;;;13.60;5.78;;;2.80;99.90;;;;;;5048671;28;20025;-44
2023/03/05 07:05:05;;;;;;;8.93;5.63;;;2.70;99.90;;;;;;5048509;28;20047;-44
2023/03/05 07:07:31;;;;;;;10.88;5.88;;;2.70;99.90;;;;;;5048674;28;20403;-44
2023/03/05 07:09:57;;;;;;;13.15;6.22;;;2.70;99.90;;;;;;5048173;28;20040;-39
2023/03/05 07:12:22;;;;;;;12.57;7.28;;;2.70;99.90;;;;;;5046905;28;20229;-39
2023/03/05 07:14:48;;;;;;;15.82;6.13;;;2.70;99.90;;;;;;5047964;28;20382;-39
2023/03/05 07:17:14;;;;;;;11.38;5.28;;;2.70;99.90;;;;;;5054053;28;20024;-39
2023/03/05 07:19:40;;;;;;;11.45;5.47;;;2.70;99.90;;;;;;5068343;28;20020;-40
2023/03/05 07:22:06;;;;;;;16.42;5.72;;;2.80;99.90;;;;;;5039414;28;20032;-40
2023/03/05 07:24:32;;;;;;;20.88;6.35;;;2.80;99.90;;;;;;5046772;28;20024;-40
2023/03/05 07:26:58;;;;;;;11.63;5.43;;;2.90;99.90;;;;;;5048298;28;20094;-40
2023/03/05 07:29:25;;;;;;;11.82;5.60;;;2.90;99.90;;;;;;5048372;28;20025;-39
2023/03/05 07:31:51;;;;;;;9.85;5.75;;;2.90;99.90;;;;;;5048545;28;20033;-39
2023/03/05 07:34:17;;;;;;;23.52;6.07;;;2.90;99.90;;;;;;5048093;28;20337;-40
2023/03/05 07:36:43;;;;;;;14.98;5.05;;;2.90;99.90;;;;;;5047644;28;20490;-39
2023/03/05 07:39:10;;;;;;;13.27;5.88;;;3.00;99.90;;;;;;5047529;28;20028;-39
2023/03/05 07:41:37;;;;;;;11.95;5.70;;;3.10;99.90;;;;;;5048359;28;20022;-39
2023/03/05 07:44:02;;;;;;;11.00;4.85;;;3.10;99.90;;;;;;5048194;28;20017;-39
2023/03/05 07:46:31;;;;;;;9.15;4.40;;;3.20;99.90;;;;;;5047874;28;20032;-39
2023/03/05 07:48:58;;;;;;;12.63;4.93;;;3.30;99.90;;;;;;5048681;28;20026;-39
2023/03/05 07:51:25;;;;;;;16.67;4.53;;;3.40;99.90;;;;;;5052574;28;20024;-39
2023/03/05 07:53:52;;;;;;;13.40;4.53;;;3.40;99.90;;;;;;5050937;28;20025;-39
2023/03/05 07:56:36;;;;;;;13.20;4.85;;;3.40;99.90;;;;;;5052460;28;20247;-39
2023/03/05 07:59:07;;;;;;;7.75;4.50;;;3.40;99.90;;;;;;5051624;28;20071;-39
2023/03/05 08:01:33;;;;;;;8.45;4.15;;;3.40;99.90;;;;;;5051866;28;20028;-39
2023/03/05 08:04:00;;;;;;;10.05;5.03;;;3.40;99.90;;;;;;5051257;28;20035;-39
2023/03/05 08:06:26;;;;;;;9.55;4.40;;;3.40;99.90;;;;;;5045346;28;20076;-39
2023/03/05 08:08:51;;;;;;;14.70;5.07;;;3.50;99.90;;;;;;5051943;28;20461;-39
2023/03/05 08:11:17;;;;;;;13.05;5.03;;;3.40;99.90;;;;;;5051343;28;20044;-39
2023/03/05 08:13:43;;;;;;;9.77;5.22;;;3.40;99.90;;;;;;5061411;28;20016;-39
2023/03/05 08:16:13;;;;;;;14.88;5.40;;;3.50;99.90;;;;;;5072553;28;20097;-39
2023/03/05 08:18:39;;;;;;;20.73;5.47;;;3.40;99.90;;;;;;5072377;28;20536;-39
2023/03/05 08:21:04;;;;;;;10.43;4.35;;;3.50;99.90;;;;;;5072208;28;20028;-39
2023/03/05 08:23:30;;;;;;;19.25;6.05;;;3.50;99.90;;;;;;5072039;28;20086;-40
2023/03/05 08:25:56;;;;;;;15.48;4.88;;;3.60;99.90;;;;;;5071556;28;20239;-40
2023/03/05 08:28:22;;;;;;;11.18;4.50;;;3.60;99.90;;;;;;5064016;28;20072;-40
2023/03/05 08:30:48;;;;;;;21.30;4.95;;;3.60;99.90;;;;;;5047439;28;20022;-40
2023/03/05 08:33:16;;;;;;;12.40;4.60;;;3.50;99.90;;;;;;5050296;28;20107;-43
2023/03/05 08:35:42;;;;;;;8.68;5.38;;;3.50;99.90;;;;;;5061154;28;20118;-40
2023/03/05 08:38:07;;;;;;;8.32;4.95;;;3.50;99.90;;;;;;5071846;28;20501;-39
2023/03/05 08:40:33;;;;;;;8.20;4.88;;;3.40;99.90;;;;;;5069553;28;20425;-39
2023/03/05 08:42:59;;;;;;;14.93;4.68;;;3.40;99.90;;;;;;5054372;28;20110;-39
2023/03/05 08:45:26;;;;;;;11.25;5.13;;;3.40;99.90;;;;;;5050911;28;20104;-39
2023/03/05 08:47:53;;;;;;;10.60;4.85;;;3.40;99.90;;;;;;5054288;28;20434;-39
2023/03/05 08:50:21;;;;;;;14.93;5.28;;;3.60;99.90;;;;;;5050968;28;20028;-39
2023/03/05 08:52:46;;;;;;;13.45;4.40;;;3.70;99.90;;;;;;5051750;28;20048;-40
2023/03/05 08:55:12;;;;;;;10.00;4.72;;;3.70;99.90;;;;;;5051112;28;20098;-39
2023/03/05 08:57:37;;;;;;;12.32;4.13;;;3.80;99.90;;;;;;5051618;28;20110;-39
2023/03/05 09:00:04;;;;;;;12.98;3.80;;;4.00;99.90;;;;;;5051320;28;20025;-38
2023/03/05 09:02:30;;;;;;;8.07;3.80;;;4.00;99.90;;;;;;5051138;28;20017;-39
2023/03/05 09:04:55;;;;;;;8.40;3.92;;;4.00;99.90;;;;;;5050922;28;20017;-39
2023/03/05 09:07:21;;;;;;;21.00;5.25;;;4.00;99.90;;;;;;5050376;28;20363;-39
2023/03/05 09:09:46;;;;;;;8.55;4.07;;;3.90;99.90;;;;;;5049706;28;20102;-40
2023/03/05 09:12:12;;;;;;;8.10;4.43;;;3.90;99.90;;;;;;5051620;28;20017;-39
2023/03/05 09:14:39;;;;;;;6.13;3.70;;;3.80;99.90;;;;;;5046618;28;20098;-39
2023/03/05 09:17:05;;;;;;;9.55;3.92;;;3.70;99.90;;;;;;5045616;28;20031;-40
2023/03/05 09:19:30;;;;;;;9.75;4.03;;;3.60;99.90;;;;;;5044459;28;20028;-39
2023/03/05 09:21:56;;;;;;;11.68;5.28;;;3.50;99.90;;;;;;5048162;28;20017;-44
2023/03/05 09:24:21;;;;;;;7.45;3.83;;;3.70;99.90;;;;;;5047596;28;20056;-39
2023/03/05 09:26:47;;;;;;;9.23;4.82;;;3.80;99.90;;;;;;5048734;28;20025;-39
2023/03/05 09:29:13;;;;;;;10.55;4.80;;;3.80;99.90;;;;;;5049564;28;20052;-39
2023/03/05 09:31:39;;;;;;;9.38;4.05;;;3.70;99.90;;;;;;5049445;28;20475;-39
2023/03/05 09:34:06;;;;;;;7.25;3.78;;;3.60;99.90;;;;;;5061979;28;20089;-39
2023/03/05 09:36:31;;;;;;;8.23;4.57;;;3.40;99.90;;;;;;5067943;28;20478;-39
2023/03/05 09:38:57;;;;;;;11.18;4.25;;;3.30;99.90;;;;;;5069808;28;20035;-39
2023/03/05 09:41:26;;;;;;;9.88;3.97;;;3.20;99.90;;;;;;5069737;28;20436;-46
2023/03/05 09:44:17;;;;;;;8.65;4.13;;;3.20;99.90;;;;;;5058155;28;20025;-45
2023/03/05 09:47:08;;;;;;;8.48;3.47;;;3.20;99.90;;;;;;5047617;28;20029;-45
2023/03/05 09:49:58;;;;;;;4.65;2.90;;;3.20;99.90;;;;;;5049635;28;20061;-45
2023/03/05 09:52:33;;;;;;;6.57;3.30;;;3.10;99.90;;;;;;5042352;28;20033;-45
2023/03/05 09:55:00;;;;;;;6.28;2.65;;;3.10;99.90;;;;;;5049280;28;20032;-46
2023/03/05 09:57:41;;;;;;;5.35;2.95;;;3.10;99.90;;;;;;5036705;28;20041;-47
2023/03/05 10:00:22;;;;;;;5.68;2.30;;;3.10;99.90;;;;;;5043759;28;20036;-45
2023/03/05 10:02:54;;;;;;;7.53;3.30;;;3.10;99.90;;;;;;5047866;28;20025;-45
2023/03/05 10:05:24;;;;;;;7.45;2.53;;;3.20;99.90;;;;;;5047373;28;20390;-48
2023/03/05 10:07:58;;;;;;;7.03;2.20;;;3.30;99.90;;;;;;5047343;28;20060;-45
2023/03/05 10:10:32;;;;;;;4.22;1.80;;;3.50;99.90;;;;;;5037260;28;20043;-46
2023/03/05 10:13:04;;;;;;;4.13;1.92;;;3.80;99.90;;;;;;5046068;28;20032;-45
2023/03/05 10:15:39;;;;;;;5.30;1.70;;;3.90;99.90;;;;;;5039780;28;20020;-47
2023/03/05 10:18:10;;;;;;;4.70;2.03;;;4.00;99.90;;;;;;5043526;28;20513;-46
2023/03/05 10:20:54;;;;;;;4.78;2.10;;;4.70;99.90;;;;;;5044613;28;20495;-44
2023/03/05 10:23:28;;;;;;;3.17;1.90;;;6.00;99.90;;;;;;5044130;28;20037;-44
2023/03/05 10:26:11;;;;;;;3.17;1.75;;;7.00;99.90;;;;;;5047467;28;20398;-43
2023/03/05 10:29:09;;;;;;;5.75;2.50;;;8.10;99.90;;;;;;5047358;28;20024;-46
2023/03/05 10:32:17;;;;;;;4.13;1.80;;;9.40;99.90;;;;;;5025081;28;20037;-38
2023/03/05 10:35:07;;;;;;;3.40;1.77;;;11.20;99.90;;;;;;5044129;28;20040;-38
2023/03/05 10:38:02;;;;;;;4.70;2.10;;;13.10;99.90;;;;;;5042083;28;20036;-39
2023/03/05 10:40:45;;;;;;;2.20;1.50;;;14.70;93.60;;;;;;5043967;28;20068;-39
2023/03/05 10:43:20;;;;;;;2.67;1.77;;;15.40;92.00;;;;;;5042614;28;20424;-39
2023/03/05 10:45:51;;;;;;;1.75;1.30;;;15.40;85.60;;;;;;5044558;28;20433;-39
2023/03/05 10:48:33;;;;;;;1.58;1.40;;;15.10;82.20;;;;;;5046762;28;20025;-39
2023/03/05 10:51:12;;;;;;;1.80;1.30;;;15.30;80.70;;;;;;5043720;28;20412;-39
2023/03/05 10:54:08;;;;;;;2.28;1.30;;;14.50;84.70;;;;;;5047672;28;20095;-38
2023/03/05 10:56:34;;;;;;;2.60;1.58;;;13.00;84.00;;;;;;5045315;28;20363;-39
2023/03/05 10:58:59;;;;;;;4.45;1.42;;;11.50;86.60;;;;;;5047465;28;20351;-38
2023/03/05 11:01:27;;;;;;;2.88;1.50;;;10.60;91.90;;;;;;5047206;28;20443;-39
2023/03/05 11:04:02;;;;;;;6.30;1.70;;;10.10;93.80;;;;;;5046773;28;20021;-38
2023/03/05 11:06:37;;;;;;;3.20;1.70;;;9.50;94.30;;;;;;5031586;28;20107;-39
2023/03/05 11:09:23;;;;;;;3.08;1.90;;;8.60;98.10;;;;;;5027272;28;20025;-39
2023/03/05 11:12:01;;;;;;;4.38;1.85;;;8.90;98.50;;;;;;5030436;28;20645;-39
2023/03/05 11:14:34;;;;;;;5.07;1.70;;;9.90;96.90;;;;;;5032780;28;20708;-39
2023/03/05 11:17:02;;;;;;;3.38;1.35;;;10.10;94.90;;;;;;5040196;28;20030;-39
2023/03/05 11:19:31;;;;;;;3.50;1.33;;;10.10;93.80;;;;;;5033394;28;20124;-39
2023/03/05 11:22:17;;;;;;;3.08;1.65;;;10.10;95.10;;;;;;5028241;28;20017;-38
2023/03/05 11:24:47;;;;;;;5.68;1.00;;;10.40;94.50;;;;;;5027553;28;20025;-39
2023/03/05 11:27:35;;;;;;;2.05;0.77;;;10.80;95.00;;;;;;5037201;28;20032;-40
2023/03/05 11:30:03;;;;;;;4.13;0.90;;;10.80;92.70;;;;;;5048256;28;20051;-39
2023/03/05 11:32:30;;;;;;;1.80;0.90;;;10.80;92.20;;;;;;5047540;28;20407;-39
2023/03/05 11:34:56;;;;;;;2.75;0.88;;;11.10;90.10;;;;;;5047930;28;20032;-39
2023/03/05 11:37:40;;;;;;;3.90;1.05;;;11.20;90.30;;;;;;5048285;28;20683;-39
2023/03/05 11:40:18;;;;;;;1.52;0.98;;;10.80;87.00;;;;;;5048567;28;20100;-39
2023/03/05 11:42:47;;;;;;;5.15;1.30;;;9.80;90.50;;;;;;5048433;28;20418;-39
2023/03/05 11:45:16;;;;;;;2.45;1.20;;;9.40;91.50;;;;;;5053851;28;20020;-39
2023/03/05 11:47:47;;;;;;;2.35;1.48;;;8.80;93.70;;;;;;5068505;28;20102;-39
2023/03/05 11:50:21;;;;;;;;;;;8.30;93.90;;;;;;5068966;28;20559;-39
2023/03/05 11:52:56;;;;;;;4.93;1.50;;;7.80;95.90;;;;;;5063674;28;19909;-39
2023/03/05 11:55:36;;;;;;;5.57;1.75;;;7.30;95.70;;;;;;5047859;28;20025;-39
2023/03/05 11:58:33;;;;;;;4.35;1.98;;;7.10;97.70;;;;;;5047814;28;20017;-39
2023/03/05 12:01:00;;;;;;;3.80;1.70;;;6.70;99.90;;;;;;5048303;28;20469;-39
2023/03/05 12:03:35;;;;;;;8.50;2.80;;;6.50;99.90;;;;;;5047914;28;20382;-39
2023/03/05 12:06:33;;;;;;;5.80;2.15;;;6.30;99.90;;;;;;5059928;28;20401;-39
2023/03/05 12:09:05;;;;;;;5.15;2.13;;;6.30;99.90;;;;;;5047837;28;20032;-39
2023/03/05 12:11:32;;;;;;;6.10;2.47;;;6.10;99.90;;;;;;5047992;28;20462;-39
2023/03/05 12:14:02;;;;;;;5.85;1.77;;;6.00;99.90;;;;;;5044745;28;20033;-39
2023/03/05 12:17:06;;;;;;;2.63;1.67;;;5.90;99.90;;;;;;5047722;28;20500;-39
2023/03/05 12:19:44;;;;;;;3.72;1.65;;;5.90;99.90;;;;;;5006298;28;20025;-40
2023/03/05 12:22:19;;;;;;;9.05;1.98;;;5.70;99.90;;;;;;5046101;28;20083;-39
2023/03/05 12:24:45;;;;;;;3.65;1.80;;;5.40;99.90;;;;;;5047550;28;20009;-46
2023/03/05 12:27:14;;;;;;;8.57;2.08;;;5.30;99.90;;;;;;5046154;28;20486;-45
2023/03/05 12:29:41;;;;;;;4.13;2.40;;;5.30;99.90;;;;;;5047116;28;20021;-46
2023/03/05 12:32:27;;;;;;;6.43;3.33;;;5.70;99.90;;;;;;5047204;28;20053;-45
2023/03/05 12:35:04;;;;;;;8.38;2.97;;;5.80;99.90;;;;;;5043392;28;20053;-47
2023/03/05 12:37:30;;;;;;;6.35;2.80;;;6.00;99.90;;;;;;5044652;28;20390;-46
2023/03/05 12:40:18;;;;;;;7.82;2.58;;;6.10;99.90;;;;;;5050854;28;20029;-48
2023/03/05 12:42:46;;;;;;;4.38;2.30;;;6.20;99.90;;;;;;5050632;28;20100;-44
2023/03/05 12:45:13;;;;;;;3.67;2.10;;;6.10;99.90;;;;;;5050552;28;20044;-47
2023/03/05 12:47:42;;;;;;;7.78;2.72;;;6.20;99.90;;;;;;5050732;28;20067;-45
2023/03/05 12:50:28;;;;;;;11.57;2.47;;;6.20;99.90;;;;;;5051319;28;20474;-46
2023/03/05 12:52:58;;;;;;;8.35;3.00;;;6.20;99.90;;;;;;5038138;28;20496;-48
2023/03/05 12:55:35;;;;;;;5.30;2.90;;;6.10;99.90;;;;;;5047501;28;20033;-47
2023/03/05 12:58:28;;;;;;;5.53;2.72;;;6.50;99.90;;;;;;5050409;28;20558;-45
2023/03/05 13:01:09;;;;;;;6.55;2.25;;;6.80;99.90;;;;;;5049466;28;20213;-45